Time;durP1;ratioP1;P1;durP2;ratioP2;P2;SDS_P1;SDS_P2;PMS_P1;PMS_P2;Temp;Humidity;BMP_temperature;BMP_pressure;BME280_temperature;BME280_humidity;BME280_pressure;Samples;Min_cycle;Max_cycle;Signal;HPM_P1;HPM_P2
2023/03/05 00:02:15;;;;;;;15.65;9.07;;;;;;;3.14;75.54;100152.63;5006181;28;20481;-71
2023/03/05 00:04:40;;;;;;;16.75;11.00;;;;;;;3.08;75.44;100151.19;5006112;28;20495;-71
2023/03/05 00:07:08;;;;;;;17.30;9.82;;;;;;;3.08;75.68;100163.56;5006250;28;20026;-72
2023/03/05 00:09:33;;;;;;;18.38;10.35;;;;;;;3.07;75.52;100153.94;5006555;28;20033;-72
2023/03/05 00:11:59;;;;;;;16.88;9.80;;;;;;;3.06;75.87;100152.25;5005962;28;20026;-71
2023/03/05 00:14:24;;;;;;;17.25;9.93;;;;;;;3.01;76.53;100159.59;5008447;28;20042;-71
2023/03/05 00:16:50;;;;;;;15.80;10.32;;;;;;;2.88;77.15;100148.88;5006095;28;20468;-71
2023/03/05 00:19:15;;;;;;;14.27;9.40;;;;;;;2.90;76.99;100146.16;5006248;28;20026;-71
2023/03/05 00:21:41;;;;;;;17.80;10.02;;;;;;;3.05;76.41;100150.50;5006431;28;20072;-71
2023/03/05 00:24:13;;;;;;;20.35;10.80;;;;;;;3.04;76.62;100170.00;5005357;28;20068;-71
2023/03/05 00:26:39;;;;;;;18.00;11.30;;;;;;;2.95;76.74;100175.84;5004431;28;20443;-71
2023/03/05 00:29:06;;;;;;;19.85;10.02;;;;;;;2.95;76.72;100162.59;5005731;28;20036;-71
2023/03/05 00:31:34;;;;;;;14.32;9.90;;;;;;;3.03;76.53;100161.19;5003286;28;20048;-72
2023/03/05 00:34:07;;;;;;;19.25;10.30;;;;;;;2.96;76.60;100161.69;5005777;28;20053;-64
2023/03/05 00:36:33;;;;;;;18.02;9.57;;;;;;;2.96;76.90;100166.97;5007849;28;20045;-64
2023/03/05 00:38:58;;;;;;;17.77;9.93;;;;;;;2.78;77.08;100168.03;5005082;28;20033;-64
2023/03/05 00:41:24;;;;;;;16.80;10.23;;;;;;;2.83;77.64;100169.47;5005973;28;20095;-65
2023/03/05 00:43:49;;;;;;;13.95;9.15;;;;;;;2.85;77.26;100164.09;5005529;28;20079;-64
2023/03/05 00:46:16;;;;;;;18.67;10.68;;;;;;;2.75;77.65;100160.28;5005422;28;20049;-65
2023/03/05 00:48:42;;;;;;;18.05;9.85;;;;;;;2.62;78.18;100161.94;5006498;28;20575;-64
2023/03/05 00:51:08;;;;;;;15.40;9.57;;;;;;;2.56;79.15;100152.56;5005251;28;20037;-65
2023/03/05 00:53:34;;;;;;;15.90;9.57;;;;;;;2.54;79.14;100150.94;5005444;28;20388;-64
2023/03/05 00:55:59;;;;;;;16.63;10.25;;;;;;;2.66;79.07;100152.88;5005577;28;20049;-65
2023/03/05 00:58:25;;;;;;;18.40;9.82;;;;;;;2.51;78.97;100144.00;5004632;28;20120;-64
2023/03/05 01:00:50;;;;;;;17.20;9.55;;;;;;;2.58;79.07;100155.13;5004082;28;20080;-65
2023/03/05 01:03:17;;;;;;;18.73;10.00;;;;;;;2.61;79.46;100165.53;5005513;28;20033;-72
2023/03/05 01:05:43;;;;;;;17.92;10.43;;;;;;;2.46;78.83;100138.16;5005904;28;20538;-71
2023/03/05 01:08:08;;;;;;;17.92;10.05;;;;;;;2.56;78.86;100149.03;5006038;28;20026;-71
2023/03/05 01:10:34;;;;;;;15.43;9.25;;;;;;;2.77;78.16;100153.94;5006188;28;20030;-72
2023/03/05 01:12:59;;;;;;;16.08;9.57;;;;;;;2.70;78.72;100160.53;5009125;28;20062;-72
2023/03/05 01:15:25;;;;;;;15.70;9.90;;;;;;;2.61;78.77;100157.59;5005774;28;20036;-64
2023/03/05 01:17:51;;;;;;;19.40;10.52;;;;;;;2.70;78.62;100157.91;5005217;28;20421;-64
2023/03/05 01:20:19;;;;;;;18.35;10.32;;;;;;;2.73;78.66;100167.44;5008092;28;20611;-64
2023/03/05 01:22:45;;;;;;;18.65;9.80;;;;;;;2.71;78.95;100156.94;5003624;28;20026;-64
2023/03/05 01:25:12;;;;;;;18.23;10.70;;;;;;;2.53;79.33;100159.81;5005348;28;20374;-64
2023/03/05 01:27:38;;;;;;;19.25;10.23;;;;;;;2.42;79.88;100134.00;5005778;28;20053;-65
2023/03/05 01:30:04;;;;;;;21.17;11.65;;;;;;;2.47;80.43;100146.94;5007932;28;20061;-64
2023/03/05 01:32:30;;;;;;;18.27;10.90;;;;;;;2.59;80.56;100180.63;5005431;28;20022;-64
2023/03/05 01:34:55;;;;;;;22.17;10.88;;;;;;;2.50;80.57;100167.91;5006194;28;20088;-64
2023/03/05 01:37:21;;;;;;;22.73;11.32;;;;;;;2.60;80.41;100169.97;5008723;28;20038;-65
2023/03/05 01:39:46;;;;;;;20.17;10.88;;;;;;;2.57;80.67;100178.06;5008921;28;20038;-63
2023/03/05 01:42:11;;;;;;;20.17;12.23;;;;;;;2.42;80.85;100153.34;5009559;28;20033;-70
2023/03/05 01:44:37;;;;;;;19.10;11.50;;;;;;;2.48;81.03;100175.13;5008986;28;20034;-71
2023/03/05 01:47:02;;;;;;;20.50;11.75;;;;;;;2.38;81.25;100154.47;5009188;28;20053;-71
2023/03/05 01:49:31;;;;;;;17.80;10.98;;;;;;;2.42;81.95;100167.53;5008957;28;20080;-71
2023/03/05 01:52:18;;;;;;;19.35;11.75;;;;;;;2.43;82.28;100170.09;5008621;28;20060;-71
2023/03/05 01:54:48;;;;;;;20.70;11.90;;;;;;;2.33;82.13;100153.88;5006817;28;20048;-70
2023/03/05 01:57:21;;;;;;;17.70;10.73;;;;;;;2.32;82.03;100156.59;5009278;28;20026;-72
2023/03/05 01:59:53;;;;;;;26.73;11.73;;;;;;;2.35;82.63;100175.81;5008643;28;20116;-71
2023/03/05 02:02:20;;;;;;;21.67;11.45;;;;;;;2.28;82.52;100169.16;5008680;28;20376;-71
2023/03/05 02:04:56;;;;;;;21.40;13.25;;;;;;;2.55;81.25;100179.13;5008806;28;20113;-71
2023/03/05 02:07:23;;;;;;;21.58;12.52;;;;;;;2.43;81.00;100160.34;5008335;28;20080;-72
2023/03/05 02:09:48;;;;;;;25.80;12.65;;;;;;;2.47;81.64;100176.03;5008224;28;20032;-70
2023/03/05 02:12:14;;;;;;;23.70;12.48;;;;;;;2.38;81.85;100158.06;5008769;28;20109;-71
2023/03/05 02:14:43;;;;;;;20.23;11.73;;;;;;;2.48;81.58;100170.66;5008239;28;20461;-71
2023/03/05 02:17:10;;;;;;;20.17;11.13;;;;;;;2.47;81.66;100170.75;5010808;28;20042;-71
2023/03/05 02:19:49;;;;;;;20.45;11.57;;;;;;;2.36;82.73;100177.50;5008136;28;20022;-71
2023/03/05 02:22:20;;;;;;;21.83;12.77;;;;;;;2.38;82.82;100179.22;5008716;28;20030;-71
2023/03/05 02:24:46;;;;;;;19.30;11.85;;;;;;;2.36;82.13;100169.56;5008282;28;20029;-72
2023/03/05 02:27:13;;;;;;;22.67;13.25;;;;;;;2.33;82.22;100169.75;5007934;28;20109;-71
2023/03/05 02:29:43;;;;;;;20.00;12.32;;;;;;;2.26;82.49;100160.44;5008721;28;20029;-71
2023/03/05 02:32:09;;;;;;;24.33;12.85;;;;;;;2.34;82.37;100167.97;5005622;28;20129;-72
2023/03/05 02:34:35;;;;;;;24.63;12.93;;;;;;;2.27;82.90;100174.53;5007948;28;20022;-71
2023/03/05 02:37:03;;;;;;;19.38;11.13;;;;;;;2.25;82.93;100164.03;5007839;28;20042;-71
2023/03/05 02:39:29;;;;;;;27.52;13.23;;;;;;;2.30;82.41;100169.06;5008091;28;20519;-70
2023/03/05 02:41:55;;;;;;;20.92;12.57;;;;;;;2.31;82.38;100173.41;5007272;28;20476;-70
2023/03/05 02:44:21;;;;;;;23.05;12.68;;;;;;;2.21;82.67;100161.66;5007868;28;20041;-71
2023/03/05 02:46:46;;;;;;;24.13;12.57;;;;;;;2.21;82.94;100166.94;5005965;28;20025;-72
2023/03/05 02:49:12;;;;;;;23.80;12.77;;;;;;;2.21;82.54;100162.50;5007717;28;20114;-72
2023/03/05 02:51:37;;;;;;;22.83;12.45;;;;;;;2.35;81.85;100173.16;5007655;28;20109;-70
2023/03/05 02:54:03;;;;;;;23.75;12.90;;;;;;;2.32;82.12;100167.19;5008523;28;20037;-71
2023/03/05 02:56:28;;;;;;;21.40;12.43;;;;;;;2.46;81.09;100169.03;5007818;28;20137;-70
2023/03/05 02:58:54;;;;;;;22.67;12.38;;;;;;;2.38;80.98;100170.34;5007191;28;20033;-70
2023/03/05 03:01:19;;;;;;;20.15;12.18;;;;;;;2.38;81.52;100168.66;5007890;28;20034;-71
2023/03/05 03:03:45;;;;;;;22.13;12.95;;;;;;;2.33;81.86;100160.97;5007473;28;20026;-70
2023/03/05 03:06:10;;;;;;;22.85;13.02;;;;;;;2.36;81.43;100166.91;5006838;28;20033;-70
2023/03/05 03:08:36;;;;;;;22.35;12.90;;;;;;;2.25;81.64;100158.75;5007442;28;20040;-70
2023/03/05 03:11:11;;;;;;;21.52;13.52;;;;;;;2.20;82.23;100167.88;5006730;28;20064;-71
2023/03/05 03:13:37;;;;;;;22.95;12.98;;;;;;;2.22;82.28;100166.84;5005627;28;20124;-71
2023/03/05 03:16:10;;;;;;;23.45;11.95;;;;;;;2.21;82.83;100161.66;5007168;28;20030;-71
2023/03/05 03:18:35;;;;;;;22.65;12.95;;;;;;;2.18;82.72;100161.81;5008929;28;20038;-72
2023/03/05 03:21:01;;;;;;;27.33;13.50;;;;;;;2.04;82.94;100143.25;5006801;28;20132;-71
2023/03/05 03:23:27;;;;;;;27.60;13.25;;;;;;;2.19;82.68;100156.44;5007175;28;20041;-71
2023/03/05 03:25:55;;;;;;;19.98;12.13;;;;;;;2.15;82.67;100157.56;5006934;28;20037;-72
2023/03/05 03:28:20;;;;;;;22.08;13.45;;;;;;;2.14;83.33;100161.16;5008879;28;20445;-71
2023/03/05 03:30:46;;;;;;;22.52;12.30;;;;;;;2.09;82.19;100139.38;5006027;28;20050;-72
2023/03/05 03:33:11;;;;;;;22.67;13.13;;;;;;;2.07;82.71;100153.66;5006757;28;20030;-70
2023/03/05 03:35:37;;;;;;;25.08;12.40;;;;;;;2.04;83.33;100165.22;5006852;28;20065;-71
2023/03/05 03:38:03;;;;;;;24.33;12.20;;;;;;;1.95;84.27;100163.13;5006285;28;20046;-71
2023/03/05 03:40:29;;;;;;;24.75;12.52;;;;;;;1.94;84.20;100161.38;5009046;28;20034;-71
2023/03/05 03:42:54;;;;;;;23.25;13.07;;;;;;;2.08;83.49;100168.56;5007159;28;20061;-71
2023/03/05 03:45:22;;;;;;;23.83;12.90;;;;;;;2.12;83.68;100157.72;5013155;28;20030;-64
2023/03/05 03:47:49;;;;;;;22.80;13.60;;;;;;;2.05;83.18;100156.38;5010742;28;20022;-64
2023/03/05 03:50:14;;;;;;;19.13;11.45;;;;;;;1.59;83.61;100071.78;5007925;28;20030;-64
2023/03/05 03:52:40;;;;;;;24.75;12.45;;;;;;;2.00;84.35;100147.84;5012419;28;20537;-64
2023/03/05 03:55:06;;;;;;;21.17;12.52;;;;;;;2.18;83.48;100140.66;5010502;28;20025;-64
2023/03/05 03:57:32;;;;;;;25.75;14.57;;;;;;;2.15;83.27;100143.47;5008995;28;20025;-65
2023/03/05 03:59:58;;;;;;;21.88;12.90;;;;;;;2.22;83.15;100150.97;5008944;28;20100;-64
2023/03/05 04:02:24;;;;;;;25.30;12.88;;;;;;;2.22;83.28;100150.13;5016184;28;20031;-64
2023/03/05 04:04:50;;;;;;;23.42;12.75;;;;;;;2.12;84.59;100152.44;5012368;28;20037;-64
2023/03/05 04:07:16;;;;;;;22.35;12.73;;;;;;;2.05;85.01;100144.94;5009442;28;20038;-63
2023/03/05 04:09:41;;;;;;;23.55;13.68;;;;;;;2.17;84.66;100149.53;5007909;28;20512;-63
2023/03/05 04:12:07;;;;;;;25.13;13.80;;;;;;;2.25;84.23;100158.75;5013634;28;20036;-63
2023/03/05 04:14:33;;;;;;;22.90;13.30;;;;;;;2.31;83.97;100152.25;5006952;28;20045;-63
2023/03/05 04:16:58;;;;;;;27.08;14.52;;;;;;;2.24;84.37;100157.06;5007823;28;20083;-64
2023/03/05 04:19:24;;;;;;;25.83;13.65;;;;;;;2.32;83.66;100154.81;5010278;28;20045;-64
2023/03/05 04:21:49;;;;;;;23.48;13.57;;;;;;;2.32;84.01;100157.47;5007541;28;20022;-64
2023/03/05 04:24:15;;;;;;;23.25;13.00;;;;;;;2.38;83.44;100150.13;5011660;28;20037;-64
2023/03/05 04:26:40;;;;;;;23.08;11.60;;;;;;;2.31;83.67;100142.53;5006172;28;20109;-64
2023/03/05 04:29:05;;;;;;;30.25;12.20;;;;;;;2.43;84.00;100149.75;5005413;28;20050;-64
2023/03/05 04:31:31;;;;;;;28.08;12.68;;;;;;;2.32;84.37;100141.59;5005986;28;20030;-65
2023/03/05 04:33:58;;;;;;;22.40;12.10;;;;;;;2.26;84.63;100123.41;5005357;28;20033;-63
2023/03/05 04:36:23;;;;;;;23.25;13.63;;;;;;;2.56;83.90;100154.34;5005664;28;20053;-63
2023/03/05 04:38:48;;;;;;;22.20;11.93;;;;;;;2.51;84.15;100143.19;5005710;28;20045;-64
2023/03/05 04:41:14;;;;;;;21.42;12.18;;;;;;;2.53;84.42;100154.53;5005663;28;20021;-64
2023/03/05 04:43:39;;;;;;;24.42;12.23;;;;;;;2.63;83.43;100142.44;5005885;28;20120;-64
2023/03/05 04:46:05;;;;;;;23.35;12.57;;;;;;;2.28;83.94;100103.03;5006244;28;20105;-64
2023/03/05 04:48:30;;;;;;;21.20;12.88;;;;;;;2.41;84.80;100132.25;5005728;28;20021;-64
2023/03/05 04:50:56;;;;;;;20.05;11.23;;;;;;;2.54;84.35;100141.19;5005293;28;20034;-65
2023/03/05 04:53:22;;;;;;;20.92;11.65;;;;;;;2.66;84.11;100139.63;5005656;28;20021;-64
2023/03/05 04:55:53;;;;;;;21.50;11.88;;;;;;;2.68;83.94;100132.47;5007908;28;20510;-64
2023/03/05 04:58:18;;;;;;;22.75;11.30;;;;;;;2.70;83.60;100130.59;5008786;28;20916;-65
2023/03/05 05:00:44;;;;;;;22.67;12.05;;;;;;;2.81;84.11;100144.03;5010605;28;20033;-63
2023/03/05 05:03:09;;;;;;;22.00;13.20;;;;;;;2.88;83.34;100143.59;5007872;28;20460;-64
2023/03/05 05:05:35;;;;;;;22.52;13.10;;;;;;;2.89;82.69;100142.63;5008544;28;20508;-64
2023/03/05 05:08:00;;;;;;;27.50;13.13;;;;;;;3.05;82.27;100155.81;5011401;28;20452;-64
2023/03/05 05:10:26;;;;;;;24.10;12.48;;;;;;;3.02;82.77;100148.91;5015137;28;20530;-64
2023/03/05 05:12:51;;;;;;;21.23;12.23;;;;;;;3.02;82.62;100151.56;5011294;28;21569;-64
2023/03/05 05:15:17;;;;;;;20.33;12.23;;;;;;;2.97;83.34;100150.97;5013265;28;20026;-63
2023/03/05 05:17:43;;;;;;;17.92;11.52;;;;;;;2.90;83.11;100138.19;5007407;28;20038;-63
2023/03/05 05:20:11;;;;;;;20.02;12.15;;;;;;;2.96;83.06;100141.31;5008847;28;20242;-64
2023/03/05 05:22:36;;;;;;;18.05;11.00;;;;;;;3.05;83.04;100143.44;5009801;28;20129;-64
2023/03/05 05:25:02;;;;;;;29.27;13.80;;;;;;;2.99;83.30;100157.03;5008838;28;20117;-70
2023/03/05 05:27:28;;;;;;;27.63;14.75;;;;;;;3.09;82.89;100157.34;5009083;28;20030;-71
2023/03/05 05:29:53;;;;;;;27.10;16.00;;;;;;;3.16;83.05;100159.53;5008998;28;20033;-70
2023/03/05 05:32:21;;;;;;;28.00;13.70;;;;;;;3.20;82.81;100157.56;5009373;28;20079;-71
2023/03/05 05:34:46;;;;;;;21.30;12.68;;;;;;;3.12;83.34;100163.31;5010593;28;20021;-71
2023/03/05 05:37:12;;;;;;;23.63;11.55;;;;;;;3.19;83.73;100161.16;5008632;28;20057;-72
2023/03/05 05:39:37;;;;;;;22.80;12.30;;;;;;;3.29;82.36;100147.22;5008717;28;20034;-72
2023/03/05 05:42:03;;;;;;;22.08;11.77;;;;;;;3.26;82.88;100165.97;5008767;28;20467;-72
2023/03/05 05:44:28;;;;;;;21.30;11.65;;;;;;;3.35;82.45;100168.06;5006152;28;20041;-71
2023/03/05 05:46:54;;;;;;;25.60;13.10;;;;;;;3.21;82.42;100146.00;5010993;28;20120;-70
2023/03/05 05:49:19;;;;;;;25.30;12.65;;;;;;;3.45;81.87;100189.59;5008383;28;20057;-72
2023/03/05 05:51:45;;;;;;;23.85;12.40;;;;;;;3.28;82.68;100179.97;5008982;28;20412;-71
2023/03/05 05:54:14;;;;;;;27.88;13.15;;;;;;;3.29;83.31;100178.19;5008093;28;20380;-72
2023/03/05 05:56:41;;;;;;;21.38;10.93;;;;;;;3.25;81.92;100163.41;5006847;28;20037;-71
2023/03/05 05:59:06;;;;;;;20.05;11.00;;;;;;;3.36;82.23;100175.09;5010398;28;20034;-65
2023/03/05 06:01:34;;;;;;;25.10;11.90;;;;;;;3.40;81.78;100175.75;5007752;28;20037;-63
2023/03/05 06:04:00;;;;;;;21.95;11.45;;;;;;;3.46;81.91;100185.97;5008087;28;20038;-63
2023/03/05 06:06:26;;;;;;;21.88;11.27;;;;;;;3.39;81.96;100196.06;5007979;28;20033;-64
2023/03/05 06:08:53;;;;;;;20.88;11.50;;;;;;;3.40;82.93;100191.63;5007913;28;20034;-64
2023/03/05 06:11:19;;;;;;;18.73;10.85;;;;;;;3.45;82.77;100202.84;5006763;28;20034;-64
2023/03/05 06:13:46;;;;;;;28.65;13.20;;;;;;;3.53;81.63;100185.50;5007898;28;20029;-64
2023/03/05 06:16:14;;;;;;;31.98;14.07;;;;;;;3.53;81.27;100169.59;5008244;28;20049;-63
2023/03/05 06:18:40;;;;;;;26.42;12.70;;;;;;;3.78;79.67;100195.47;5006560;28;20065;-64
2023/03/05 06:21:08;;;;;;;25.88;13.50;;;;;;;3.76;79.67;100192.91;5007502;28;20078;-64
2023/03/05 06:23:34;;;;;;;26.98;12.93;;;;;;;3.65;80.70;100191.84;5007600;28;20029;-64
2023/03/05 06:26:02;;;;;;;27.42;14.95;;;;;;;3.62;80.42;100173.47;5008061;28;20065;-71
2023/03/05 06:28:28;;;;;;;28.98;13.75;;;;;;;3.63;80.59;100170.75;5008806;28;20022;-71
2023/03/05 06:31:06;;;;;;;20.90;11.73;;;;;;;3.79;80.38;100189.19;5008238;28;20382;-71
2023/03/05 06:33:32;;;;;;;22.35;12.07;;;;;;;3.88;80.07;100188.63;5008159;28;20041;-73
2023/03/05 06:35:58;;;;;;;24.90;12.55;;;;;;;3.99;78.85;100200.28;5007723;28;20030;-71
2023/03/05 06:38:24;;;;;;;28.08;12.57;;;;;;;3.88;79.44;100188.63;5007954;28;20060;-71
2023/03/05 06:40:50;;;;;;;26.83;12.05;;;;;;;3.85;79.55;100202.94;5006607;28;20405;-72
2023/03/05 06:43:15;;;;;;;24.13;12.65;;;;;;;4.05;78.28;100204.34;5009444;28;20030;-73
2023/03/05 06:45:41;;;;;;;26.45;13.48;;;;;;;4.06;78.68;100196.28;5009175;28;20034;-71
2023/03/05 06:48:06;;;;;;;24.65;12.95;;;;;;;4.13;78.37;100207.38;5008044;28;20022;-71
2023/03/05 06:50:35;;;;;;;23.08;12.20;;;;;;;4.20;77.79;100217.47;5007962;28;20495;-72
2023/03/05 06:53:01;;;;;;;23.02;12.32;;;;;;;4.12;77.74;100195.88;5008243;28;20083;-72
2023/03/05 06:55:27;;;;;;;22.98;11.63;;;;;;;4.11;78.69;100214.56;5007376;28;20065;-72
2023/03/05 06:57:52;;;;;;;27.17;13.23;;;;;;;4.17;78.04;100204.44;5007910;28;20077;-71
2023/03/05 07:00:18;;;;;;;25.80;12.45;;;;;;;4.27;77.23;100213.50;5007709;28;20021;-71
2023/03/05 07:02:43;;;;;;;24.60;13.25;;;;;;;4.25;78.19;100206.56;5008316;28;20025;-72
2023/03/05 07:05:09;;;;;;;23.17;12.82;;;;;;;4.35;77.42;100207.69;5009547;28;20149;-72
2023/03/05 07:07:35;;;;;;;23.05;12.90;;;;;;;4.37;77.49;100205.78;5007907;28;20046;-72
2023/03/05 07:10:00;;;;;;;19.60;11.55;;;;;;;4.40;76.76;100203.81;5006900;28;20058;-71
2023/03/05 07:12:26;;;;;;;20.80;11.98;;;;;;;4.47;76.77;100206.91;5005837;28;20057;-72
2023/03/05 07:14:51;;;;;;;24.15;12.65;;;;;;;4.53;75.91;100219.78;5006550;28;20449;-72
2023/03/05 07:17:17;;;;;;;23.75;12.05;;;;;;;4.55;76.12;100208.09;5007789;28;20034;-72
2023/03/05 07:19:43;;;;;;;25.33;12.63;;;;;;;4.67;75.23;100209.09;5007416;28;20057;-72
2023/03/05 07:22:09;;;;;;;23.73;12.93;;;;;;;4.70;74.64;100198.28;5007224;28;20416;-72
2023/03/05 07:24:35;;;;;;;24.20;12.05;;;;;;;4.70;74.81;100192.97;5004986;28;20079;-72
2023/03/05 07:27:01;;;;;;;24.60;12.82;;;;;;;4.82;74.36;100207.25;5009791;28;20022;-72
2023/03/05 07:29:27;;;;;;;20.45;11.65;;;;;;;4.98;73.42;100211.47;5007552;28;20361;-71
2023/03/05 07:31:53;;;;;;;21.35;12.70;;;;;;;4.83;73.54;100198.34;5005443;28;20025;-73
2023/03/05 07:34:19;;;;;;;25.33;12.40;;;;;;;4.83;73.76;100209.81;5006318;28;20044;-73
2023/03/05 07:36:48;;;;;;;21.25;11.48;;;;;;;4.95;72.22;100206.34;5008579;28;20042;-73
2023/03/05 07:39:14;;;;;;;24.08;12.93;;;;;;;4.99;72.52;100218.47;5006248;28;20042;-73
2023/03/05 07:41:39;;;;;;;21.77;11.57;;;;;;;5.01;72.07;100213.91;5004801;28;20044;-71
2023/03/05 07:44:04;;;;;;;21.63;12.07;;;;;;;5.01;72.56;100205.06;5007310;28;20033;-70
2023/03/05 07:46:32;;;;;;;25.30;13.27;;;;;;;5.05;72.13;100198.59;5005930;28;20017;-70
2023/03/05 07:48:58;;;;;;;23.13;12.65;;;;;;;4.99;72.18;100213.16;5005079;28;20026;-65
2023/03/05 07:51:26;;;;;;;24.00;13.02;;;;;;;4.93;73.15;100205.59;5006459;28;20026;-65
2023/03/05 07:53:54;;;;;;;24.42;12.00;;;;;;;5.00;72.81;100198.91;5004698;28;20736;-65
2023/03/05 07:56:37;;;;;;;22.58;11.85;;;;;;;5.02;71.77;100191.69;5006137;28;20128;-65
2023/03/05 07:59:09;;;;;;;32.45;11.93;;;;;;;5.20;70.84;100194.91;5002564;28;20026;-64
2023/03/05 08:01:34;;;;;;;29.13;13.05;;;;;;;5.23;70.19;100184.94;5005283;28;20061;-65
2023/03/05 08:04:01;;;;;;;27.75;13.38;;;;;;;5.11;71.11;100174.25;5004879;28;20100;-65
2023/03/05 08:06:27;;;;;;;24.13;12.73;;;;;;;5.20;71.34;100197.56;5006485;28;20030;-64
2023/03/05 08:08:52;;;;;;;23.17;12.93;;;;;;;5.11;70.36;100163.63;5006386;28;20033;-65
2023/03/05 08:11:18;;;;;;;24.25;12.35;;;;;;;5.21;69.88;100173.53;5006377;28;20032;-64
2023/03/05 08:13:43;;;;;;;24.33;12.75;;;;;;;5.32;70.45;100186.09;5007694;28;20128;-72
2023/03/05 08:16:18;;;;;;;22.85;12.70;;;;;;;5.40;69.90;100197.06;5006245;28;20033;-72
2023/03/05 08:18:45;;;;;;;21.73;13.07;;;;;;;5.46;68.86;100200.16;5004557;28;20034;-72
2023/03/05 08:21:18;;;;;;;24.20;13.15;;;;;;;5.49;68.98;100196.44;5006179;28;20014;-72
2023/03/05 08:23:44;;;;;;;24.17;11.98;;;;;;;5.45;69.22;100193.13;5006440;28;20033;-71
2023/03/05 08:26:15;;;;;;;26.10;12.68;;;;;;;5.49;69.34;100191.97;5006220;28;20037;-71
2023/03/05 08:28:40;;;;;;;27.23;12.98;;;;;;;5.56;68.60;100187.94;5006634;28;20488;-71
2023/03/05 08:31:11;;;;;;;23.02;13.10;;;;;;;5.49;68.94;100199.09;5006179;28;20112;-71
2023/03/05 08:33:37;;;;;;;25.88;13.13;;;;;;;5.54;68.78;100195.16;5006555;28;20026;-71
2023/03/05 08:36:03;;;;;;;23.45;12.65;;;;;;;5.66;67.94;100191.66;5007824;28;20381;-70
2023/03/05 08:38:28;;;;;;;21.83;12.30;;;;;;;5.64;68.25;100192.72;5004314;28;20057;-71
2023/03/05 08:40:53;;;;;;;19.80;11.85;;;;;;;5.71;67.32;100199.31;5006051;28;20033;-71
2023/03/05 08:43:19;;;;;;;20.13;12.80;;;;;;;5.63;67.45;100191.00;5006530;28;20030;-71
2023/03/05 08:45:46;;;;;;;21.75;11.23;;;;;;;5.53;67.69;100169.53;5010210;28;20041;-71
2023/03/05 08:48:11;;;;;;;22.52;12.27;;;;;;;5.69;67.15;100187.91;5011135;28;20345;-71
2023/03/05 08:50:37;;;;;;;21.42;12.45;;;;;;;5.68;67.33;100184.38;5010621;28;20020;-71
2023/03/05 08:53:02;;;;;;;22.60;13.45;;;;;;;5.65;67.59;100181.13;5008659;28;20748;-71
2023/03/05 08:55:28;;;;;;;26.85;15.82;;;;;;;5.61;67.70;100187.63;5011528;28;20060;-72
2023/03/05 08:57:53;;;;;;;25.75;13.95;;;;;;;5.53;68.17;100177.50;5010280;28;20065;-72
2023/03/05 09:00:19;;;;;;;20.80;12.77;;;;;;;5.59;68.70;100178.88;5010001;28;20037;-72
2023/03/05 09:02:45;;;;;;;26.30;13.55;;;;;;;5.65;67.11;100186.44;5011973;28;20029;-72
2023/03/05 09:05:10;;;;;;;25.15;13.40;;;;;;;5.73;67.11;100182.28;5010306;28;20057;-72
2023/03/05 09:07:36;;;;;;;23.85;14.05;;;;;;;5.69;67.63;100183.47;5009250;28;20103;-70
2023/03/05 09:10:03;;;;;;;24.17;13.18;;;;;;;5.74;67.10;100188.47;5008256;28;20080;-71
2023/03/05 09:12:29;;;;;;;30.63;13.38;;;;;;;5.77;66.49;100191.72;5007810;28;20040;-72
2023/03/05 09:14:55;;;;;;;23.05;12.32;;;;;;;5.76;67.18;100189.19;5005271;28;20026;-71
2023/03/05 09:17:21;;;;;;;21.85;12.95;;;;;;;5.67;66.87;100180.03;5008377;28;20037;-70
2023/03/05 09:19:47;;;;;;;24.05;13.38;;;;;;;5.61;67.30;100187.63;5009344;28;20504;-70
2023/03/05 09:22:12;;;;;;;23.33;13.80;;;;;;;5.70;67.17;100187.81;5008911;28;20168;-73
2023/03/05 09:24:37;;;;;;;25.20;13.45;;;;;;;5.70;67.70;100184.28;5011264;28;20084;-71
2023/03/05 09:27:03;;;;;;;22.02;13.52;;;;;;;5.72;67.10;100180.59;5007309;28;20033;-65
2023/03/05 09:29:30;;;;;;;26.33;14.98;;;;;;;5.69;67.63;100178.13;5009193;28;20028;-65
2023/03/05 09:31:55;;;;;;;24.35;14.38;;;;;;;5.68;67.14;100176.41;5004624;28;20045;-65
2023/03/05 09:34:22;;;;;;;27.92;14.13;;;;;;;5.72;67.43;100177.91;5006714;28;20376;-65
2023/03/05 09:36:48;;;;;;;24.92;13.35;;;;;;;5.67;66.86;100165.91;5006919;28;20502;-65
2023/03/05 09:39:14;;;;;;;29.08;14.55;;;;;;;5.71;66.74;100170.88;5007625;28;20033;-65
2023/03/05 09:42:05;;;;;;;27.85;15.30;;;;;;;5.76;67.33;100179.41;5008680;28;20046;-71
2023/03/05 09:44:33;;;;;;;26.00;13.55;;;;;;;5.78;66.58;100179.28;5008929;28;20018;-71
2023/03/05 09:47:13;;;;;;;27.20;14.38;;;;;;;5.84;67.02;100185.06;5009300;28;20030;-71
2023/03/05 09:49:48;;;;;;;26.40;13.95;;;;;;;5.86;67.30;100184.94;5009557;28;20034;-71
2023/03/05 09:52:25;;;;;;;27.38;16.95;;;;;;;5.81;67.20;100168.44;5006993;28;20026;-66
2023/03/05 09:54:56;;;;;;;26.55;14.07;;;;;;;5.82;67.41;100171.03;5010878;28;20026;-66
2023/03/05 09:57:27;;;;;;;23.98;13.10;;;;;;;5.90;66.34;100159.84;5004686;28;20033;-65
2023/03/05 10:00:07;;;;;;;28.27;14.07;;;;;;;6.05;65.53;100166.72;5006943;28;20112;-64
2023/03/05 10:02:36;;;;;;;21.95;13.85;;;;;;;6.06;66.28;100169.25;5008731;28;20029;-64
2023/03/05 10:05:13;;;;;;;21.88;13.25;;;;;;;6.13;65.43;100173.19;5006902;28;20038;-65
2023/03/05 10:07:50;;;;;;;24.75;12.75;;;;;;;6.05;65.23;100146.28;5009225;28;20088;-65
2023/03/05 10:10:38;;;;;;;23.73;13.38;;;;;;;6.17;65.30;100165.84;5007055;28;20474;-71
2023/03/05 10:13:15;;;;;;;26.45;14.35;;;;;;;6.16;65.54;100153.50;5007164;28;20042;-71
2023/03/05 10:16:00;;;;;;;24.50;13.18;;;;;;;6.26;65.22;100162.50;5006524;28;20068;-71
2023/03/05 10:18:31;;;;;;;23.35;13.68;;;;;;;6.32;65.34;100160.25;5006111;28;20036;-71
2023/03/05 10:21:05;;;;;;;25.98;14.18;;;;;;;6.40;65.29;100159.69;5007621;28;20175;-71
2023/03/05 10:24:03;;;;;;;24.23;13.13;;;;;;;6.47;65.52;100161.78;5007348;28;20135;-71
2023/03/05 10:26:49;;;;;;;24.58;13.60;;;;;;;6.57;64.14;100161.94;5006544;28;20042;-71
2023/03/05 10:29:33;;;;;;;22.63;13.10;;;;;;;6.58;63.73;100163.69;5005394;28;20502;-71
2023/03/05 10:32:34;;;;;;;22.48;13.10;;;;;;;6.64;63.49;100155.19;5007149;28;20034;-72
2023/03/05 10:35:22;;;;;;;25.08;13.90;;;;;;;6.66;63.70;100140.81;4996424;28;20426;-72
2023/03/05 10:38:00;;;;;;;25.27;15.30;;;;;;;6.67;62.69;100138.97;5006494;28;20511;-72
2023/03/05 10:40:29;;;;;;;24.52;15.02;;;;;;;6.67;62.89;100128.31;5007895;28;20431;-72
2023/03/05 10:43:09;;;;;;;20.35;11.35;;;;;;;6.78;61.47;100126.56;5007605;28;20444;-72
2023/03/05 10:45:44;;;;;;;21.15;11.35;;;;;;;6.81;61.61;100130.81;5006645;28;20603;-72
2023/03/05 10:48:21;;;;;;;23.20;13.18;;;;;;;6.79;61.82;100124.75;5007541;28;20567;-71
2023/03/05 10:50:52;;;;;;;24.58;11.57;;;;;;;6.95;61.23;100120.81;5007406;28;20488;-71
2023/03/05 10:53:28;;;;;;;20.85;11.57;;;;;;;6.95;61.39;100127.97;5007128;28;20535;-71
2023/03/05 10:55:55;;;;;;;19.65;11.55;;;;;;;7.06;60.92;100129.81;5006810;28;20026;-71
2023/03/05 10:58:23;;;;;;;17.50;10.80;;;;;;;7.12;60.94;100118.69;5007081;28;20047;-71
2023/03/05 11:00:59;;;;;;;26.42;12.13;;;;;;;7.05;61.03;100118.28;5007583;28;20030;-73
2023/03/05 11:03:25;;;;;;;19.08;10.45;;;;;;;7.18;59.65;100110.19;5007104;28;20025;-72
2023/03/05 11:05:59;;;;;;;21.23;10.25;;;;;;;7.12;59.61;100079.50;5007369;28;20030;-70
2023/03/05 11:08:35;;;;;;;18.95;10.45;;;;;;;7.22;59.74;100087.66;5006710;28;20440;-71
2023/03/05 11:11:08;;;;;;;23.27;10.07;;;;;;;7.25;59.95;100082.09;5006191;28;20088;-70
2023/03/05 11:13:52;;;;;;;15.93;10.55;;;;;;;7.25;60.01;100074.09;5008203;28;20059;-70
2023/03/05 11:16:20;;;;;;;;;;;;;;;7.27;59.00;100065.00;5006842;28;20538;-71
2023/03/05 11:18:46;;;;;;;21.60;9.07;;;;;;;7.23;59.73;100062.69;5006780;28;19921;-71
2023/03/05 11:21:20;;;;;;;12.32;8.27;;;;;;;7.31;59.63;100055.78;5007163;28;20468;-71